createdAt,value
2022-11-01T00:00:37.038Z,52809.57
2022-11-01T00:01:41.517Z,52863.68
2022-11-01T00:02:44.761Z,52858.67
2022-11-01T00:03:47.793Z,52788.53
2022-11-01T00:04:50.690Z,52845.64
2022-11-01T00:05:53.761Z,52912.78
2022-11-01T00:07:03.220Z,52863.68
2022-11-01T00:08:08.740Z,52915.78
2022-11-01T00:09:13.053Z,52907.77
2022-11-01T00:10:22.157Z,52872.70
2022-11-01T00:14:06.496Z,52932.82
2022-11-01T00:15:09.995Z,52922.80
2022-11-01T00:16:19.846Z,52937.83
2022-11-01T00:17:29.059Z,52867.68
2022-11-01T00:18:32.543Z,52852.66
2022-11-01T00:19:35.958Z,52925.80
2022-11-01T00:20:43.673Z,52924.80
2022-11-01T00:21:51.945Z,52905.76
2022-11-01T00:22:55.428Z,52837.62
2022-11-01T00:24:00.029Z,52834.62
2022-11-01T00:25:03.005Z,52823.60
2022-11-01T00:26:06.917Z,52802.55
2022-11-01T00:27:10.115Z,52820.59
2022-11-01T00:28:13.061Z,52878.71
2022-11-01T00:29:16.797Z,52883.72
2022-11-01T00:31:52.229Z,52972.90
2022-11-01T00:33:00.091Z,52877.71
2022-11-01T00:37:22.556Z,52808.57
2022-11-01T00:56:20.856Z,52822.59
2022-11-01T00:59:30.293Z,52820.59
2022-11-01T01:01:36.029Z,52866.68
2022-11-01T01:02:39.125Z,52882.71
2022-11-01T01:03:42.009Z,52856.66
2022-11-01T01:04:44.873Z,52840.63
2022-11-01T01:05:47.959Z,52833.62
2022-11-01T01:06:51.130Z,52868.69
2022-11-01T01:07:54.224Z,52821.59
2022-11-01T01:08:57.104Z,52817.59
2022-11-01T01:10:00.376Z,52818.59
2022-11-01T01:11:03.348Z,52827.61
2022-11-01T01:12:06.228Z,52813.58
2022-11-01T01:13:09.501Z,52842.64
2022-11-01T01:14:12.390Z,52845.64
2022-11-01T01:15:15.361Z,52820.59
2022-11-01T01:16:18.435Z,52838.62
2022-11-01T01:17:21.834Z,52824.60
2022-11-01T01:18:25.214Z,52851.65
2022-11-01T01:19:28.291Z,52775.50
2022-11-01T01:20:31.479Z,52800.55
2022-11-01T01:21:34.758Z,52824.60
2022-11-01T01:22:38.046Z,52837.62
2022-11-01T01:23:41.120Z,52779.51
2022-11-01T01:24:44.503Z,52802.55
2022-11-01T01:25:47.389Z,52834.62
2022-11-01T01:26:50.668Z,52811.57
2022-11-01T01:27:53.548Z,52766.48
2022-11-01T01:28:56.313Z,52815.58
2022-11-01T01:30:00.008Z,52813.58
2022-11-01T01:31:02.781Z,52817.59
2022-11-01T01:32:06.070Z,52803.56
2022-11-01T01:33:08.908Z,52795.54
2022-11-01T01:34:12.420Z,52791.54
2022-11-01T01:35:15.508Z,52794.54
2022-11-01T01:36:19.001Z,52765.48
2022-11-01T01:37:22.079Z,52793.54
2022-11-01T01:38:25.362Z,52792.54
2022-11-01T01:39:28.440Z,52819.59
2022-11-01T01:40:31.612Z,52811.57
2022-11-01T01:41:34.607Z,52844.64
2022-11-01T01:42:37.697Z,52783.52
2022-11-01T01:43:41.090Z,52791.54
2022-11-01T01:44:44.456Z,52769.49
2022-11-01T01:45:47.434Z,52723.40
2022-11-01T01:46:50.510Z,52763.48
2022-11-01T01:47:53.384Z,52778.51
2022-11-01T01:48:56.362Z,52763.48
2022-11-01T01:49:59.439Z,52801.55
2022-11-01T01:51:03.243Z,52774.50
2022-11-01T01:52:06.203Z,52791.54
2022-11-01T01:53:09.187Z,52787.53
2022-11-01T01:54:12.272Z,52798.55
2022-11-01T01:55:15.453Z,52768.49
2022-11-01T01:56:18.640Z,52762.48
2022-11-01T01:57:21.616Z,52804.56
2022-11-01T01:58:24.584Z,52791.54
2022-11-01T01:59:31.246Z,52794.54
2022-11-01T02:00:34.224Z,52776.50
2022-11-01T02:01:37.661Z,52791.54
2022-11-01T02:02:41.001Z,52777.50
2022-11-01T02:03:43.882Z,52765.48
2022-11-01T02:04:46.654Z,52792.54
2022-11-01T02:05:49.517Z,52838.62
2022-11-01T02:06:52.803Z,52796.54
2022-11-01T02:07:55.780Z,52767.49
2022-11-01T02:08:58.661Z,52767.49
2022-11-01T02:10:01.728Z,52753.46
2022-11-01T02:11:05.020Z,52728.41
2022-11-01T02:12:07.992Z,52809.57
2022-11-01T02:13:11.494Z,52798.55
2022-11-01T02:14:15.013Z,52790.53
2022-11-01T02:15:18.461Z,52805.56
2022-11-01T02:16:21.761Z,52777.50
2022-11-01T02:17:24.731Z,52813.58
2022-11-01T02:18:28.027Z,52799.55
2022-11-01T02:19:31.715Z,52825.60
2022-11-01T02:20:35.293Z,52799.55
2022-11-01T02:21:38.975Z,52803.56
2022-11-01T02:23:46.571Z,52778.51
2022-11-01T02:24:50.160Z,52773.50
2022-11-01T02:25:53.542Z,52765.48
2022-11-01T02:26:57.130Z,52749.45
2022-11-01T02:28:01.133Z,52812.58
2022-11-01T02:29:05.857Z,52790.53
2022-11-01T02:30:09.344Z,52789.53
2022-11-01T02:31:13.568Z,52813.58
2022-11-01T02:32:17.550Z,52804.56
2022-11-01T02:33:21.143Z,52792.54
2022-11-01T02:34:24.420Z,52755.46
2022-11-01T02:35:28.324Z,52812.58
2022-11-01T02:36:31.500Z,52801.55
2022-11-01T02:37:35.404Z,52759.47
2022-11-01T02:38:47.564Z,52823.60
2022-11-01T02:39:51.195Z,52847.64
2022-11-01T02:40:54.671Z,52833.62
2022-11-01T02:41:58.885Z,52783.52
2022-11-01T02:43:08.939Z,52804.56
2022-11-01T02:44:13.129Z,52803.56
2022-11-01T02:45:17.344Z,52807.57
2022-11-01T02:46:20.636Z,52830.61
2022-11-01T02:47:24.466Z,52841.63
2022-11-01T02:48:30.268Z,52813.58
2022-11-01T02:49:34.795Z,52787.53
2022-11-01T02:50:38.474Z,52783.52
2022-11-01T02:51:41.873Z,52822.59
2022-11-01T02:52:45.145Z,52797.55
2022-11-01T02:53:48.326Z,52816.58
2022-11-01T02:54:51.916Z,52814.58
2022-11-01T02:55:55.338Z,52836.62
2022-11-01T02:56:58.688Z,52810.57
2022-11-01T02:58:02.611Z,52786.52
2022-11-01T02:59:12.413Z,52839.63
2022-11-01T03:00:15.645Z,52789.53
2022-11-01T03:01:19.672Z,52819.59
2022-11-01T03:02:23.710Z,52811.57
2022-11-01T03:03:28.216Z,52830.61
2022-11-01T03:04:31.918Z,52828.61
2022-11-01T03:05:35.501Z,52821.59
2022-11-01T03:06:39.207Z,52837.62
2022-11-01T03:07:46.636Z,52848.65
2022-11-01T03:08:49.767Z,52799.55
2022-11-01T03:09:53.356Z,52817.59
2022-11-01T03:10:56.943Z,52816.58
2022-11-01T03:12:00.538Z,52816.58
2022-11-01T03:13:04.541Z,52841.63
2022-11-01T03:14:07.935Z,52843.64
2022-11-01T03:15:11.629Z,52815.58
2022-11-01T03:16:15.829Z,52812.58
2022-11-01T03:17:19.409Z,52822.59
2022-11-01T03:18:23.110Z,52813.58
2022-11-01T03:19:26.933Z,52784.52
2022-11-01T03:20:30.408Z,52771.50
2022-11-01T03:21:33.877Z,52803.56
2022-11-01T03:22:37.780Z,52823.60
2022-11-01T03:23:41.684Z,52793.54
2022-11-01T03:24:47.855Z,52811.57
2022-11-01T03:25:51.014Z,52771.50
2022-11-01T03:26:54.192Z,52827.61
2022-11-01T03:27:57.583Z,52806.56
2022-11-01T03:29:01.607Z,52831.61
2022-11-01T03:30:04.972Z,52801.55
2022-11-01T03:31:08.595Z,52797.55
2022-11-01T03:32:12.561Z,52849.65
2022-11-01T03:33:16.051Z,52849.65
2022-11-01T03:34:20.061Z,52817.59
2022-11-01T03:35:23.540Z,52829.61
2022-11-01T03:36:27.230Z,52815.58
2022-11-01T03:37:30.714Z,52821.59
2022-11-01T03:38:34.724Z,52819.59
2022-11-01T03:39:38.411Z,52783.52
2022-11-01T03:40:42.212Z,52812.58
2022-11-01T03:41:45.497Z,52799.55
2022-11-01T03:42:48.886Z,52839.63
2022-11-01T03:43:52.306Z,52813.58
2022-11-01T03:44:55.981Z,52806.56
2022-11-01T03:45:59.063Z,52868.69
2022-11-01T03:47:03.048Z,52819.59
2022-11-01T03:48:06.632Z,52835.62
2022-11-01T03:49:10.429Z,52825.60
2022-11-01T03:50:14.117Z,52921.79
2022-11-01T03:51:19.367Z,52878.71
2022-11-01T03:52:22.949Z,52797.55
2022-11-01T03:53:26.647Z,52869.69
2022-11-01T03:54:30.053Z,52855.66
2022-11-01T03:55:33.621Z,52858.67
2022-11-01T03:56:37.315Z,52787.53
2022-11-01T03:57:40.905Z,52809.57
2022-11-01T03:58:44.401Z,52773.50
2022-11-01T03:59:47.782Z,52768.49
2022-11-01T04:00:51.331Z,52805.56
2022-11-01T04:01:54.885Z,52803.56
2022-11-01T04:02:58.348Z,52773.50
2022-11-01T04:04:01.527Z,52824.60
2022-11-01T04:05:05.012Z,52827.61
2022-11-01T04:06:08.537Z,52832.62
2022-11-01T04:07:12.311Z,52810.57
2022-11-01T04:08:16.100Z,52801.55
2022-11-01T04:09:19.280Z,52811.57
2022-11-01T04:10:22.510Z,52798.55
2022-11-01T04:11:25.649Z,52781.52
2022-11-01T04:12:28.734Z,52768.49
2022-11-01T04:13:32.009Z,52749.45
2022-11-01T04:14:35.096Z,52759.47
2022-11-01T04:15:38.612Z,52763.48
2022-11-01T04:16:41.864Z,52812.58
2022-11-01T04:17:45.563Z,52801.55
2022-11-01T04:18:48.834Z,52767.49
2022-11-01T04:19:52.429Z,52820.59
2022-11-01T04:20:55.619Z,52862.68
2022-11-01T04:21:59.106Z,52799.55
2022-11-01T04:23:03.106Z,52829.61
2022-11-01T04:24:06.603Z,52816.58
2022-11-01T04:25:22.478Z,52835.62
2022-11-01T04:26:26.273Z,52851.65
2022-11-01T04:27:29.564Z,52871.70
2022-11-01T04:28:33.667Z,52879.71
2022-11-01T04:29:37.047Z,52881.71
2022-11-01T04:30:40.629Z,52878.71
2022-11-01T04:31:44.429Z,52849.65
2022-11-01T04:32:48.448Z,52861.67
2022-11-01T04:33:51.847Z,52869.69
2022-11-01T04:34:56.152Z,52881.71
2022-11-01T04:36:00.350Z,52854.66
2022-11-01T04:37:17.622Z,52853.66
2022-11-01T04:38:21.046Z,52863.68
2022-11-01T04:39:31.211Z,52873.70
2022-11-01T04:40:35.296Z,52872.70
2022-11-01T04:41:39.086Z,52864.68
2022-11-01T04:42:50.884Z,52878.71
2022-11-01T04:43:55.172Z,52892.73
2022-11-01T04:44:59.092Z,52853.66
2022-11-01T04:47:34.872Z,52834.62
2022-11-01T04:48:38.322Z,52848.65
2022-11-01T04:49:42.006Z,52816.58
2022-11-01T04:50:46.328Z,52797.55
2022-11-01T04:53:56.992Z,52843.64
2022-11-01T04:56:06.418Z,52862.68
2022-11-01T05:01:22.533Z,52881.71
2022-11-01T05:02:26.333Z,52859.67
2022-11-01T05:03:29.926Z,52891.73
2022-11-01T05:04:33.303Z,52860.67
2022-11-01T05:05:36.491Z,52878.71
2022-11-01T05:06:39.873Z,52841.63
2022-11-01T05:07:44.077Z,52867.68
2022-11-01T05:08:47.320Z,52869.69
2022-11-01T05:09:50.552Z,52873.70
2022-11-01T05:10:53.847Z,52888.73
2022-11-01T05:11:57.135Z,52895.74
2022-11-01T05:13:02.373Z,52889.73
2022-11-01T05:14:05.548Z,52850.65
2022-11-01T05:15:10.259Z,52861.67
2022-11-01T05:16:19.490Z,52870.69
2022-11-01T05:19:24.911Z,52881.71
2022-11-01T05:20:28.404Z,52867.68
2022-11-01T05:21:32.314Z,52868.69
2022-11-01T05:22:37.045Z,52880.71
2022-11-01T05:30:01.378Z,52914.78
2022-11-01T05:37:29.059Z,52967.89
2022-11-01T05:44:52.954Z,52926.80
2022-11-01T05:45:56.445Z,52913.78
2022-11-01T05:47:00.042Z,52921.79
2022-11-01T05:48:03.731Z,52901.75
2022-11-01T05:49:08.045Z,52911.77
2022-11-01T05:50:11.219Z,52903.76
2022-11-01T05:51:14.813Z,52907.77
2022-11-01T05:52:18.301Z,52891.73
2022-11-01T05:53:21.583Z,52888.73
2022-11-01T05:54:25.287Z,52876.70
2022-11-01T05:55:29.591Z,52921.79
2022-11-01T05:56:33.601Z,52921.79
2022-11-01T05:57:36.917Z,52917.79
2022-11-01T05:58:40.369Z,52918.79
2022-11-01T05:59:43.851Z,52886.72
2022-11-01T06:00:47.965Z,52909.77
2022-11-01T06:01:51.369Z,52959.87
2022-11-01T06:02:54.735Z,52901.75
2022-11-01T06:03:58.428Z,52950.85
2022-11-01T06:05:03.212Z,52977.91
2022-11-01T06:06:07.344Z,52967.89
2022-11-01T06:07:11.249Z,52952.86
2022-11-01T06:08:15.564Z,52969.89
2022-11-01T06:09:19.038Z,52923.80
2022-11-01T06:10:22.544Z,52943.84
2022-11-01T06:11:25.813Z,52936.82
2022-11-01T06:12:29.104Z,52942.84
2022-11-01T06:13:33.118Z,52953.86
2022-11-01T06:14:36.711Z,52936.82
2022-11-01T06:15:40.075Z,52968.89
2022-11-01T06:16:44.183Z,52966.89
2022-11-01T06:17:58.123Z,52980.91
2022-11-01T06:19:01.501Z,52940.83
2022-11-01T06:20:04.789Z,52915.78
2022-11-01T06:21:12.319Z,52946.84
2022-11-01T06:22:15.754Z,52930.81
2022-11-01T06:23:20.064Z,52980.91
2022-11-01T06:24:24.274Z,52930.81
2022-11-01T06:25:28.336Z,52983.92
2022-11-01T06:26:31.976Z,52921.79
2022-11-01T06:27:35.368Z,52947.85
2022-11-01T06:28:38.772Z,52944.84
2022-11-01T06:29:42.645Z,52959.87
2022-11-01T06:30:49.031Z,52935.82
2022-11-01T06:31:52.999Z,52985.92
2022-11-01T06:32:56.173Z,52917.79
2022-11-01T06:34:00.071Z,52956.86
2022-11-01T06:35:06.810Z,52933.82
2022-11-01T06:36:11.043Z,52969.89
2022-11-01T06:37:14.845Z,52949.85
2022-11-01T06:38:18.453Z,52987.93
2022-11-01T06:39:22.854Z,52976.91
2022-11-01T06:40:38.428Z,52964.88
2022-11-01T06:41:42.854Z,52951.86
2022-11-01T06:42:47.151Z,52944.84
2022-11-01T06:43:58.312Z,52943.84
2022-11-01T06:45:02.686Z,52970.89
2022-11-01T06:46:08.253Z,52996.95
2022-11-01T06:47:12.915Z,52985.92
2022-11-01T06:48:16.768Z,52997.95
2022-11-01T06:49:20.460Z,52951.86
2022-11-01T06:50:23.655Z,52948.85
2022-11-01T06:51:27.150Z,52946.84
2022-11-01T06:52:30.726Z,52957.87
2022-11-01T06:53:34.125Z,52942.84
2022-11-01T06:54:37.897Z,52941.84
2022-11-01T06:55:42.337Z,52973.90
2022-11-01T06:56:45.603Z,52950.85
2022-11-01T06:57:48.889Z,52924.80
2022-11-01T06:58:52.581Z,52927.80
2022-11-01T06:59:56.294Z,52967.89
2022-11-01T07:00:59.627Z,52955.86
2022-11-01T07:05:44.847Z,52962.88
2022-11-01T07:06:48.542Z,52927.80
2022-11-01T07:07:52.348Z,52980.91
2022-11-01T07:08:55.414Z,52967.89
2022-11-01T07:09:58.812Z,52959.87
2022-11-01T07:11:02.401Z,52945.84
2022-11-01T07:12:05.984Z,52905.76
2022-11-01T07:13:09.382Z,52952.86
2022-11-01T07:14:12.771Z,52941.84
2022-11-01T07:15:16.172Z,52978.91
2022-11-01T07:16:19.844Z,52971.89
2022-11-01T07:17:23.432Z,52969.89
2022-11-01T07:18:30.315Z,52949.85
2022-11-01T07:19:33.480Z,52975.91
2022-11-01T07:20:37.332Z,53004.96
2022-11-01T07:21:40.566Z,52954.86
2022-11-01T07:24:16.496Z,52961.87
2022-11-01T07:25:20.725Z,53001.96
2022-11-01T07:26:26.154Z,52985.92
2022-11-01T07:27:30.573Z,52943.84
2022-11-01T07:28:35.185Z,52988.93
2022-11-01T07:29:38.483Z,52968.89
2022-11-01T07:32:01.973Z,52986.93
2022-11-01T07:33:06.433Z,52945.84
2022-11-01T07:35:45.254Z,52967.89
2022-11-01T07:36:48.663Z,52964.88
2022-11-01T07:37:54.117Z,52995.95
2022-11-01T07:39:05.167Z,52973.90
2022-11-01T07:41:32.013Z,52969.89
2022-11-01T07:42:37.460Z,52945.84
2022-11-01T07:43:49.343Z,52973.90
2022-11-01T07:44:58.443Z,52973.90
2022-11-01T07:46:05.534Z,52988.93
2022-11-01T07:47:19.433Z,52954.86
2022-11-01T07:48:23.266Z,52982.92
2022-11-01T07:49:27.145Z,52993.94
2022-11-01T07:50:32.683Z,52985.92
2022-11-01T07:53:07.424Z,52975.91
2022-11-01T07:54:11.331Z,52991.94
2022-11-01T07:55:15.325Z,52954.86
2022-11-01T07:56:18.906Z,52955.86
2022-11-01T07:57:21.816Z,52942.84
2022-11-01T07:58:24.938Z,52975.91
2022-11-01T07:59:27.937Z,52959.87
2022-11-01T08:01:44.648Z,52964.88
2022-11-01T08:02:56.844Z,52959.87
2022-11-01T08:03:59.644Z,52996.95
2022-11-01T08:05:04.331Z,52955.86
2022-11-01T08:06:10.077Z,53005.96
2022-11-01T08:07:13.151Z,52964.88
2022-11-01T08:08:19.199Z,52960.88
2022-11-01T08:09:22.922Z,52973.90
2022-11-01T08:10:26.480Z,52972.90
2022-11-01T08:11:30.078Z,52990.93
2022-11-01T08:12:34.383Z,53009.97
2022-11-01T08:13:38.190Z,52981.92
2022-11-01T08:14:42.382Z,52991.94
2022-11-01T08:15:53.537Z,53016.99
2022-11-01T08:17:00.538Z,52993.94
2022-11-01T08:18:04.298Z,53015.98
2022-11-01T08:19:07.722Z,53006.97
2022-11-01T08:20:11.932Z,52979.91
2022-11-01T08:21:16.427Z,53023.00
2022-11-01T08:22:21.774Z,53015.98
2022-11-01T08:23:25.043Z,52998.95
2022-11-01T08:24:28.123Z,53019.99
2022-11-01T08:25:31.839Z,53024.00
2022-11-01T08:26:35.618Z,53023.00
2022-11-01T08:27:39.829Z,52988.93
2022-11-01T08:28:43.103Z,52980.91
2022-11-01T08:29:46.897Z,52989.93
2022-11-01T08:30:51.925Z,52983.92
2022-11-01T08:31:55.822Z,52991.94
2022-11-01T08:32:59.135Z,52981.92
2022-11-01T08:34:02.284Z,52993.94
2022-11-01T08:35:05.681Z,52997.95
2022-11-01T08:36:09.583Z,53009.97
2022-11-01T08:37:13.276Z,53040.04
2022-11-01T08:38:21.054Z,52978.91
2022-11-01T08:39:24.977Z,53007.97
2022-11-01T08:40:33.027Z,53008.97
2022-11-01T08:41:37.376Z,53023.00
2022-11-01T08:42:41.267Z,53024.00
2022-11-01T08:43:44.862Z,53023.00
2022-11-01T08:44:49.784Z,53022.00
2022-11-01T08:45:55.729Z,53010.98
2022-11-01T08:46:58.819Z,53048.05
2022-11-01T08:48:02.493Z,53019.99
2022-11-01T08:49:07.428Z,52982.92
2022-11-01T08:50:11.826Z,53034.02
2022-11-01T08:51:15.724Z,52971.89
2022-11-01T08:52:19.628Z,53026.01
2022-11-01T08:53:23.112Z,53024.00
2022-11-01T08:55:49.725Z,53025.00
2022-11-01T08:56:51.097Z,53019.99
2022-11-01T08:57:54.591Z,53026.01
2022-11-01T08:58:58.079Z,53026.01
2022-11-01T09:00:01.882Z,53031.02
2022-11-01T09:01:11.661Z,53056.07
2022-11-01T09:02:15.412Z,53031.02
2022-11-01T09:03:21.499Z,53034.02
2022-11-01T09:04:25.347Z,53032.02
2022-11-01T09:05:29.561Z,53031.02
2022-11-01T09:06:36.208Z,53013.98
2022-11-01T09:07:38.981Z,53003.96
2022-11-01T09:08:43.035Z,53042.04
2022-11-01T09:09:46.227Z,53032.02
2022-11-01T09:10:49.658Z,53016.99
2022-11-01T09:11:52.760Z,53030.02
2022-11-01T09:12:56.030Z,53032.02
2022-11-01T09:13:59.410Z,53022.00
2022-11-01T09:15:02.907Z,53069.09
2022-11-01T09:16:06.197Z,53057.07
2022-11-01T09:17:09.669Z,53045.04
2022-11-01T09:18:13.878Z,53054.06
2022-11-01T09:19:23.486Z,53045.04
2022-11-01T09:20:26.695Z,53028.01
2022-11-01T09:21:31.749Z,53048.05
2022-11-01T09:22:42.606Z,53019.99
2022-11-01T09:23:45.974Z,53073.10
2022-11-01T09:24:49.964Z,53030.02
2022-11-01T09:25:53.046Z,53043.04
2022-11-01T09:26:57.197Z,53030.02
2022-11-01T09:28:00.745Z,53049.05
2022-11-01T09:29:07.827Z,53031.02
2022-11-01T09:30:11.201Z,53047.05
2022-11-01T09:31:20.966Z,53008.97
2022-11-01T09:32:19.915Z,53040.04
2022-11-01T09:33:23.729Z,53017.99
2022-11-01T09:34:27.315Z,53008.97
2022-11-01T09:35:31.103Z,53016.99
2022-11-01T09:36:34.490Z,53033.02
2022-11-01T09:37:37.800Z,53057.07
2022-11-01T09:38:41.177Z,53076.11
2022-11-01T09:39:48.150Z,53028.01
2022-11-01T09:40:51.211Z,53025.00
2022-11-01T09:41:54.289Z,53048.05
2022-11-01T09:43:01.592Z,53022.00
2022-11-01T09:44:02.082Z,53037.03
2022-11-01T09:45:06.196Z,52991.94
2022-11-01T09:46:09.857Z,53029.01
2022-11-01T09:47:13.266Z,53011.98
2022-11-01T09:48:16.868Z,53019.99
2022-11-01T09:49:20.463Z,53038.03
2022-11-01T09:50:24.763Z,53042.04
2022-11-01T09:51:27.638Z,53049.05
2022-11-01T09:52:31.023Z,53080.12
2022-11-01T09:53:34.415Z,53035.02
2022-11-01T09:54:37.602Z,53026.01
2022-11-01T09:55:40.974Z,53030.02
2022-11-01T09:56:44.687Z,53061.08
2022-11-01T09:57:49.756Z,53056.07
2022-11-01T09:58:53.384Z,53068.09
2022-11-01T09:59:56.796Z,53060.07
2022-11-01T10:01:00.412Z,53024.00
2022-11-01T10:02:09.570Z,53058.07
2022-11-01T10:03:08.482Z,53017.99
2022-11-01T10:04:12.584Z,53035.02
2022-11-01T10:05:18.756Z,53064.08
2022-11-01T10:06:27.657Z,53051.06
2022-11-01T10:07:31.136Z,53058.07
2022-11-01T10:08:34.845Z,53076.11
2022-11-01T10:09:44.960Z,53062.08
2022-11-01T10:10:48.464Z,53078.11
2022-11-01T10:11:51.764Z,53063.08
2022-11-01T10:12:56.215Z,53068.09
2022-11-01T10:13:59.957Z,53050.05
2022-11-01T10:15:03.335Z,53061.08
2022-11-01T10:16:09.421Z,53126.21
2022-11-01T10:17:13.610Z,53079.11
2022-11-01T10:18:17.503Z,53058.07
2022-11-01T10:19:23.657Z,53098.15
2022-11-01T10:20:27.104Z,53075.11
2022-11-01T10:21:30.832Z,53066.09
2022-11-01T10:22:35.074Z,53059.07
2022-11-01T10:23:38.532Z,53078.11
2022-11-01T10:24:43.041Z,53105.17
2022-11-01T10:25:46.425Z,53078.11
2022-11-01T10:26:58.969Z,53110.18
2022-11-01T10:28:03.652Z,53114.19
2022-11-01T10:29:07.241Z,53116.19
2022-11-01T10:30:10.926Z,53083.13
2022-11-01T10:31:14.513Z,53079.11
2022-11-01T10:32:20.879Z,53098.15
2022-11-01T10:33:25.584Z,53129.22
2022-11-01T10:34:33.390Z,53122.20
2022-11-01T10:35:34.716Z,53130.22
2022-11-01T10:36:45.974Z,53166.29
2022-11-01T10:38:03.924Z,53138.23
2022-11-01T10:40:03.012Z,53162.29
2022-11-01T10:41:04.149Z,53140.24
2022-11-01T10:42:07.225Z,53152.27
2022-11-01T10:43:10.924Z,53155.27
2022-11-01T10:44:14.713Z,53171.30
2022-11-01T10:45:17.814Z,53171.30
2022-11-01T10:46:21.180Z,53177.32
2022-11-01T10:47:24.373Z,53212.39
2022-11-01T10:48:36.021Z,53177.32
2022-11-01T10:50:04.266Z,53175.31
2022-11-01T10:50:44.665Z,53188.34
2022-11-01T10:51:48.154Z,53200.37
2022-11-01T10:52:58.188Z,53179.32
2022-11-01T10:54:03.012Z,53224.41
2022-11-01T10:55:08.727Z,53196.36
2022-11-01T10:56:18.584Z,53209.38
2022-11-01T10:57:20.451Z,53208.38
2022-11-01T11:04:50.296Z,53167.30
2022-11-01T11:05:53.184Z,53243.46
2022-11-01T11:06:56.415Z,53257.48
2022-11-01T11:08:00.357Z,53217.40
2022-11-01T11:09:04.141Z,53242.45
2022-11-01T11:10:07.539Z,53242.45
2022-11-01T11:11:10.538Z,53270.51
2022-11-01T11:12:13.790Z,53290.55
2022-11-01T11:13:16.772Z,53274.52
2022-11-01T11:14:20.725Z,53298.57
2022-11-01T11:15:24.912Z,53268.51
2022-11-01T11:17:48.868Z,53298.57
2022-11-01T11:18:52.210Z,53298.57
2022-11-01T11:19:56.764Z,53290.55
2022-11-01T11:21:00.573Z,53300.57
2022-11-01T11:22:03.534Z,53317.61
2022-11-01T11:23:06.913Z,53312.60
2022-11-01T11:24:09.797Z,53367.72
2022-11-01T11:25:13.177Z,53321.62
2022-11-01T11:26:16.404Z,53350.68
2022-11-01T11:27:21.110Z,53339.66
2022-11-01T11:28:24.977Z,53364.71
2022-11-01T11:29:28.350Z,53374.73
2022-11-01T11:30:31.847Z,53327.63
2022-11-01T11:31:35.170Z,53346.67
2022-11-01T11:32:38.544Z,53372.73
2022-11-01T11:33:42.006Z,53360.70
2022-11-01T11:34:46.011Z,53339.66
2022-11-01T11:35:48.887Z,53364.71
2022-11-01T11:36:52.475Z,53331.64
2022-11-01T11:37:55.767Z,53362.71
2022-11-01T11:38:59.054Z,53364.71
2022-11-01T11:40:01.963Z,53375.73
2022-11-01T11:41:05.100Z,53384.75
2022-11-01T11:42:08.479Z,53410.81
2022-11-01T11:43:12.307Z,53408.80
2022-11-01T11:44:15.769Z,53418.83
2022-11-01T11:45:19.248Z,53441.88
2022-11-01T11:47:46.105Z,53442.88
2022-11-01T11:48:49.483Z,53470.94
2022-11-01T11:49:53.181Z,53454.91
2022-11-01T11:50:56.669Z,53430.85
2022-11-01T11:51:59.744Z,53442.88
2022-11-01T11:53:02.832Z,53394.77
2022-11-01T11:54:06.233Z,53413.82
2022-11-01T11:55:20.562Z,53422.84
2022-11-01T11:56:24.482Z,53461.92
2022-11-01T11:57:29.797Z,53416.82
2022-11-01T11:58:33.182Z,53414.82
2022-11-01T11:59:36.290Z,53356.70
2022-11-01T12:00:39.139Z,53332.64
2022-11-01T12:01:42.081Z,53348.68
2022-11-01T12:02:45.147Z,53304.58
2022-11-01T12:03:48.680Z,53314.61
2022-11-01T12:04:52.066Z,53217.40
2022-11-01T12:05:58.625Z,53228.42
2022-11-01T12:07:03.965Z,53221.41
2022-11-01T12:08:07.345Z,53234.44
2022-11-01T12:09:10.675Z,53191.35
2022-11-01T12:10:14.700Z,53212.39
2022-11-01T12:11:21.700Z,53196.36
2022-11-01T12:12:25.297Z,53163.29
2022-11-01T12:13:28.374Z,53156.27
2022-11-01T12:14:31.397Z,53153.27
2022-11-01T12:15:41.211Z,53152.27
2022-11-01T12:16:42.944Z,53132.22
2022-11-01T12:17:46.438Z,53140.24
2022-11-01T12:18:58.892Z,53103.16
2022-11-01T12:20:02.008Z,53123.20
2022-11-01T12:21:04.990Z,53146.25
2022-11-01T12:22:10.725Z,53115.19
2022-11-01T12:23:13.605Z,53156.27
2022-11-01T12:25:37.982Z,53145.25
2022-11-01T12:26:41.891Z,53134.23
2022-11-01T12:27:45.072Z,53158.28
2022-11-01T12:28:48.968Z,53139.24
2022-11-01T12:29:53.887Z,53158.28
2022-11-01T12:30:57.781Z,53127.21
2022-11-01T12:32:01.271Z,53149.26
2022-11-01T12:33:04.545Z,53070.10
2022-11-01T12:34:07.733Z,53075.11
2022-11-01T12:35:11.235Z,53097.15
2022-11-01T12:36:14.924Z,53107.17
2022-11-01T12:37:18.320Z,53074.11
2022-11-01T12:38:22.105Z,53102.16
2022-11-01T12:39:26.420Z,53098.15
2022-11-01T12:40:30.617Z,53097.15
2022-11-01T12:41:34.522Z,53088.13
2022-11-01T12:42:38.008Z,53111.18
2022-11-01T12:43:41.100Z,53101.16
2022-11-01T12:44:47.038Z,53095.15
2022-11-01T12:45:50.868Z,53079.11
2022-11-01T12:46:54.218Z,53114.19
2022-11-01T12:47:57.296Z,53070.10
2022-11-01T12:49:00.573Z,53061.08
2022-11-01T12:50:03.967Z,53099.16
2022-11-01T12:51:07.455Z,53090.14
2022-11-01T12:52:10.856Z,53106.17
2022-11-01T12:53:15.965Z,53080.12
2022-11-01T12:54:19.449Z,53058.07
2022-11-01T12:55:22.451Z,53099.16
2022-11-01T12:56:25.521Z,53091.14
2022-11-01T12:57:29.226Z,53115.19
2022-11-01T12:58:36.073Z,53084.12
2022-11-01T12:59:36.795Z,53066.09
2022-11-01T13:00:40.002Z,53080.12
2022-11-01T13:01:43.106Z,53077.11
2022-11-01T13:02:46.258Z,53104.16
2022-11-01T13:03:49.534Z,53113.18
2022-11-01T13:04:52.702Z,53096.15
2022-11-01T13:05:59.176Z,53117.19
2022-11-01T13:07:02.324Z,53074.11
2022-11-01T13:08:05.548Z,53084.12
2022-11-01T13:09:08.716Z,53099.16
2022-11-01T13:10:12.276Z,53104.16
2022-11-01T13:11:19.992Z,53107.17
2022-11-01T13:12:24.010Z,53077.11
2022-11-01T13:13:27.370Z,53106.17
2022-11-01T13:14:31.087Z,53107.17
2022-11-01T13:15:34.186Z,53097.15
2022-11-01T13:16:38.161Z,53064.08
2022-11-01T13:17:41.344Z,53115.19
2022-11-01T13:18:44.836Z,53098.15
2022-11-01T13:19:48.311Z,53073.10
2022-11-01T13:20:51.804Z,53107.17
2022-11-01T13:21:55.509Z,53084.12
2022-11-01T13:22:58.801Z,53074.11
2022-11-01T13:24:02.076Z,53079.11
2022-11-01T13:25:05.652Z,53078.11
2022-11-01T13:26:10.915Z,53085.13
2022-11-01T13:27:13.862Z,53133.23
2022-11-01T13:28:16.840Z,53110.18
2022-11-01T13:29:20.436Z,53070.10
2022-11-01T13:30:24.143Z,53074.11
2022-11-01T13:31:27.929Z,53072.10
2022-11-01T13:32:31.335Z,53088.13
2022-11-01T13:33:34.493Z,53091.14
2022-11-01T13:34:38.396Z,53109.18
2022-11-01T13:35:41.786Z,53107.17
2022-11-01T13:36:44.676Z,53091.14
2022-11-01T13:37:48.037Z,53091.14
2022-11-01T13:38:51.529Z,53098.15
2022-11-01T13:39:57.668Z,53086.13
2022-11-01T13:41:01.103Z,53074.11
2022-11-01T13:42:04.355Z,53093.14
2022-11-01T13:43:07.725Z,53114.19
2022-11-01T13:44:10.611Z,53107.17
2022-11-01T13:45:13.695Z,53098.15
2022-11-01T13:46:16.605Z,53098.15
2022-11-01T13:47:20.163Z,53105.17
2022-11-01T13:48:23.025Z,53090.14
2022-11-01T13:49:26.320Z,53090.14
2022-11-01T13:50:29.288Z,53075.11
2022-11-01T13:51:32.988Z,53088.13
2022-11-01T13:52:36.491Z,53084.12
2022-11-01T13:53:39.656Z,53076.11
2022-11-01T13:54:44.065Z,53095.15
2022-11-01T13:55:47.249Z,53124.21
2022-11-01T13:56:50.836Z,53094.14
2022-11-01T13:57:54.336Z,53087.13